Pelkie, Michigan
Current Conditions -  °F | °C
As of 6:53 AM on Friday 19 Dec 2014 (Local Time) from KCMX Reporting Station
Overcast Overcast  
Wind Chill: 13°   Ceiling: 1600
Heat Index: 21°   Visibility: 10mi
Dew Point: 17°   Wind: 6mph
Humidity: 85%   Direction: 270°W
Pressure: 30.26"   Gusts: NA
Location:  46.81°N, 88.64°W
Report Text: KCMX 191153Z AUTO 27005KT 10SM OVC016 M06/M08 A3026 RMK AO2 SLP266 I6000 T10611083 11061 21156 53002
Loading
Personal Weather Stations






























Interactive Weather Map New forecast layout! Learn more

10-Day Weather Forecast

Advertisements
Track Severe Weather on mobile